Airfield :
LOGIN :

Register | Disclaimer

   EN    FR    IT 

 










Legend :    VFR   Marginal VFR   IFR   Intensive IFR   Very Intensive IFR
Visi :
Ceiling :
>= 8 km
>= 3000ft
5 to 8 km
1000 to 3000 ft
1500m to 5 km
500 to 1000 ft
800 to 1500m
200 to 500 ft
< 800m
< 200 ft
Symbols :   Thunderstorms  Fog  Heavy snow  Heavy precipitations  Wind > 20 kt
SIGMETs :     Misc.  Thunderstorms  Icing  Turbulence  Mountain Waves  Volcanic Ashes






- Airport Elevation : 17 ft
- IATA code : CPH


EKCH - København - Kastrup (Copenhagen)

CURRENT METAR :
  • 220820Z 18004KT 3000 -DZ BR OVC002 16/16 Q1004 BECMG 7000 BKN005

EXPIRED METARs :
  • 220750Z 18006KT 2000 -DZ BR OVC002 16/16 Q1004 BECMG 5000
  • 220720Z 16005KT 2000 BR OVC002 16/15 Q1004 BECMG 4000
  • 220650Z 14005KT 6000 BKN004 16/15 Q1005 BECMG 3000 BR
  • 220620Z 11004KT 8000 BKN006 16/15 Q1005 BECMG 3000 BR BKN003
  • 220550Z 08005KT 9999 BKN008 16/15 Q1004 NOSIG
  • 220520Z 09005KT 9999 FEW008 BKN011 16/14 Q1004 TEMPO BKN008
  • 220450Z 08006KT 9999 FEW008 BKN011 16/14 Q1004 TEMPO BKN008
  • 220420Z 08007KT 9999 FEW009 BKN016 16/14 Q1005 TEMPO BKN010
  • 220350Z AUTO 08007KT 9999 BKN014/// 15/14 Q1005 TEMPO BKN008

TAF AMD TAF EKCH
Valid from the 22 at 07:00 until the 23 at 06:00 UTC


220739Z 2207/2306 22008KT 2000 BR BKN002
BECMG 2208/2210 8000 NSW BKN008
TEMPO 2210/2213 BKN004
BECMG 2213/2216 28012KT BKN015
TEMPO 2216/2306 BKN012



MET'MAP, your aeronautical weather chart ! - Copyright ORBIFLY December 2007 - Disclaimer

ORBIFLY MET'MAP TEAM :

Programming & Development : Alexandra Zaïnal
Original concept : Baudouin d'Aumeries
Technical & hardware support : Manuel Goepfert
Assistance : Marc-Olivier Méhu




SOURCES & CREDITS :

   NOAA